NCAR-RAP Real-Time Weather Data

Output produced by METARs form (17 October 2018  16:03 UTC)
found at http://weather.rap.ucar.edu/surface/
 
Conditions at: KPGD observed 17 October 2018  15:53 UTC
Temperature: 31.7°C (89°F)
Dewpoint: 22.8°C (73°F) [RH = 59%]
Pressure (altimeter): 30.14 inches Hg (1020.7 mb)
[Sea-level pressure: 1020.8 mb]
Winds: from the E (100 degrees) at 12 MPH (10 knots; 5.2 m/s)
Visibility: 10 or more miles (16+ km)
Ceiling: at least 12,000 feet AGL
Clouds: few clouds at 2800 feet AGL
scattered clouds at 3800 feet AGL
Present Weather: no significant weather observed at this time
KPGD 171553Z 10010KT 10SM FEW028 SCT038 32/23 A3014 RMK AO2 SLP208 T03170228

Conditions at: KPGD observed 17 October 2018  14:53 UTC
Temperature: 29.4°C (85°F)
Dewpoint: 23.3°C (74°F) [RH = 70%]
Pressure (altimeter): 30.15 inches Hg (1021.1 mb)
[Sea-level pressure: 1021.1 mb]
Winds: from the E (90 degrees) at 8 MPH (7 knots; 3.6 m/s)
Visibility: 10 or more miles (16+ km)
Ceiling: at least 12,000 feet AGL
Clouds: scattered clouds at 1500 feet AGL
Present Weather: no significant weather observed at this time
KPGD 171453Z 09007KT 10SM SCT015 29/23 A3015 RMK AO2 SLP211 T02940233 51013

Conditions at: KPGD observed 17 October 2018  13:53 UTC
Temperature: 28.9°C (84°F)
Dewpoint: 23.9°C (75°F) [RH = 74%]
Pressure (altimeter): 30.15 inches Hg (1021.1 mb)
[Sea-level pressure: 1021.1 mb]
Winds: from the E (80 degrees) at 9 MPH (8 knots; 4.2 m/s)
Visibility: 10 or more miles (16+ km)
Ceiling: at least 12,000 feet AGL
Clouds: sky clear below 12,000 feet AGL
Present Weather: no significant weather observed at this time
KPGD 171353Z 08008KT 10SM CLR 29/24 A3015 RMK AO2 SLP211 T02890239

Conditions at: KPGD observed 17 October 2018  12:53 UTC
Temperature: 26.1°C (79°F)
Dewpoint: 22.8°C (73°F) [RH = 82%]
Pressure (altimeter): 30.13 inches Hg (1020.4 mb)
[Sea-level pressure: 1020.4 mb]
Winds: from the ENE (60 degrees) at 7 MPH (6 knots; 3.1 m/s)
Visibility: 10 or more miles (16+ km)
Ceiling: at least 12,000 feet AGL
Clouds: sky clear below 12,000 feet AGL
Present Weather: no significant weather observed at this time
KPGD 171253Z 06006KT 10SM CLR 26/23 A3013 RMK AO2 SLP204 T02610228

Conditions at: KPGD observed 17 October 2018  11:53 UTC
Temperature: 23.9°C (75°F)
Dewpoint: 22.2°C (72°F) [RH = 90%]
Pressure (altimeter): 30.12 inches Hg (1020.1 mb)
[Sea-level pressure: 1019.8 mb]
Winds: from the ENE (70 degrees) at 3 MPH (3 knots; 1.6 m/s)
Visibility: 10 or more miles (16+ km)
Ceiling: at least 12,000 feet AGL
Clouds: sky clear below 12,000 feet AGL
Present Weather: no significant weather observed at this time
KPGD 171153Z 07003KT 10SM CLR 24/22 A3012 RMK AO2 SLP198 T02390222 10250 20233 53012

Conditions at: KPGD observed 17 October 2018  10:53 UTC
Temperature: 24.4°C (76°F)
Dewpoint: 22.2°C (72°F) [RH = 88%]
Pressure (altimeter): 30.10 inches Hg (1019.4 mb)
[Sea-level pressure: 1019.3 mb]
Winds: from the E (80 degrees) at 6 MPH (5 knots; 2.6 m/s)
Visibility: 10 or more miles (16+ km)
Ceiling: at least 12,000 feet AGL
Clouds: sky clear below 12,000 feet AGL
Present Weather: no significant weather observed at this time
KPGD 171053Z 08005KT 10SM CLR 24/22 A3010 RMK AO2 SLP193 T02440222

Conditions at: KPGD observed 17 October 2018  09:53 UTC
Temperature: 23.9°C (75°F)
Dewpoint: 22.2°C (72°F) [RH = 90%]
Pressure (altimeter): 30.09 inches Hg (1019.0 mb)
[Sea-level pressure: 1018.8 mb]
Winds: from the E (80 degrees) at 6 MPH (5 knots; 2.6 m/s)
Visibility: 10 or more miles (16+ km)
Ceiling: at least 12,000 feet AGL
Clouds: sky clear below 12,000 feet AGL
Present Weather: no significant weather observed at this time
KPGD 170953Z 08005KT 10SM CLR 24/22 A3009 RMK AO2 SLP188 T02390222

Conditions at: KPGD observed 17 October 2018  08:53 UTC
Temperature: 24.4°C (76°F)
Dewpoint: 22.8°C (73°F) [RH = 91%]
Pressure (altimeter): 30.08 inches Hg (1018.7 mb)
[Sea-level pressure: 1018.7 mb]
Winds: from the ENE (60 degrees) at 7 MPH (6 knots; 3.1 m/s)
Visibility: 10 or more miles (16+ km)
Ceiling: at least 12,000 feet AGL
Clouds: sky clear below 12,000 feet AGL
Present Weather: automated observation with no human augmentation;
there may or may not be significant weather present at this time
KPGD 170853Z AUTO 06006KT 10SM CLR 24/23 A3008 RMK AO2 SLP187 T02440228 55010

Conditions at: KPGD observed 17 October 2018  07:53 UTC
Temperature: 24.4°C (76°F)
Dewpoint: 22.8°C (73°F) [RH = 91%]
Pressure (altimeter): 30.08 inches Hg (1018.7 mb)
[Sea-level pressure: 1018.5 mb]
Winds: from the E (90 degrees) at 6 MPH (5 knots; 2.6 m/s)
Visibility: 10 or more miles (16+ km)
Ceiling: at least 12,000 feet AGL
Clouds: sky clear below 12,000 feet AGL
Present Weather: automated observation with no human augmentation;
there may or may not be significant weather present at this time
KPGD 170753Z AUTO 09005KT 10SM CLR 24/23 A3008 RMK AO2 SLP185 T02440228

Conditions at: KPGD observed 17 October 2018  06:53 UTC
Temperature: 25.0°C (77°F)
Dewpoint: 22.8°C (73°F) [RH = 88%]
Pressure (altimeter): 30.09 inches Hg (1019.0 mb)
[Sea-level pressure: 1019.1 mb]
Winds: from the ESE (110 degrees) at 6 MPH (5 knots; 2.6 m/s)
Visibility: 10 or more miles (16+ km)
Ceiling: at least 12,000 feet AGL
Clouds: sky clear below 12,000 feet AGL
Present Weather: automated observation with no human augmentation;
there may or may not be significant weather present at this time
KPGD 170653Z AUTO 11005KT 10SM CLR 25/23 A3009 RMK AO2 SLP191 T02500228

Conditions at: KPGD observed 17 October 2018  05:53 UTC
Temperature: 25.0°C (77°F)
Dewpoint: 22.8°C (73°F) [RH = 88%]
Pressure (altimeter): 30.11 inches Hg (1019.7 mb)
[Sea-level pressure: 1019.7 mb]
Winds: from the E (90 degrees) at 6 MPH (5 knots; 2.6 m/s)
Visibility: 10 or more miles (16+ km)
Ceiling: at least 12,000 feet AGL
Clouds: sky clear below 12,000 feet AGL
Present Weather: automated observation with no human augmentation;
there may or may not be significant weather present at this time
KPGD 170553Z AUTO 09005KT 10SM CLR 25/23 A3011 RMK AO2 SLP197 T02500228 10289 20250 58003

Conditions at: KPGD observed 17 October 2018  03:53 UTC
Temperature: 26.1°C (79°F)
Dewpoint: 22.2°C (72°F) [RH = 79%]
Pressure (altimeter): 30.12 inches Hg (1020.1 mb)
[Sea-level pressure: 1020.0 mb]
Winds: from the ESE (120 degrees) at 8 MPH (7 knots; 3.6 m/s)
Visibility: 10 or more miles (16+ km)
Ceiling: at least 12,000 feet AGL
Clouds: sky clear below 12,000 feet AGL
Present Weather: automated observation with no human augmentation;
there may or may not be significant weather present at this time
KPGD 170353Z AUTO 12007KT 10SM CLR 26/22 A3012 RMK AO2 SLP200 T02610222

Conditions at: KPGD observed 17 October 2018  02:53 UTC
Temperature: 26.7°C (80°F)
Dewpoint: 22.8°C (73°F) [RH = 79%]
Pressure (altimeter): 30.12 inches Hg (1020.1 mb)
[Sea-level pressure: 1020.0 mb]
Winds: from the E (100 degrees) at 7 MPH (6 knots; 3.1 m/s)
Visibility: 10 or more miles (16+ km)
Ceiling: at least 12,000 feet AGL
Clouds: sky clear below 12,000 feet AGL
Present Weather: automated observation with no human augmentation;
there may or may not be significant weather present at this time
KPGD 170253Z AUTO 10006KT 10SM CLR 27/23 A3012 RMK AO2 SLP200 T02670228 51020

Conditions at: KPGD observed 17 October 2018  01:53 UTC
Temperature: 27.2°C (81°F)
Dewpoint: 22.8°C (73°F) [RH = 77%]
Pressure (altimeter): 30.10 inches Hg (1019.4 mb)
[Sea-level pressure: 1019.4 mb]
Winds: from the E (100 degrees) at 7 MPH (6 knots; 3.1 m/s)
Visibility: 10 or more miles (16+ km)
Ceiling: at least 12,000 feet AGL
Clouds: sky clear below 12,000 feet AGL
Present Weather: automated observation with no human augmentation;
there may or may not be significant weather present at this time
KPGD 170153Z AUTO 10006KT 10SM CLR 27/23 A3010 RMK AO2 SLP194 T02720228

Conditions at: KPGD observed 17 October 2018  00:53 UTC
Temperature: 28.3°C (83°F)
Dewpoint: 22.8°C (73°F) [RH = 72%]
Pressure (altimeter): 30.09 inches Hg (1019.0 mb)
[Sea-level pressure: 1018.9 mb]
Winds: from the E (100 degrees) at 8 MPH (7 knots; 3.6 m/s)
Visibility: 10 or more miles (16+ km)
Ceiling: at least 12,000 feet AGL
Clouds: sky clear below 12,000 feet AGL
Present Weather: no significant weather observed at this time
KPGD 170053Z 10007KT 10SM CLR 28/23 A3009 RMK AO2 SLP189 T02830228

Conditions at: KPGD observed 16 October 2018  23:53 UTC
Temperature: 28.9°C (84°F)
Dewpoint: 22.2°C (72°F) [RH = 67%]
Pressure (altimeter): 30.06 inches Hg (1018.0 mb)
[Sea-level pressure: 1018.1 mb]
Winds: from the E (100 degrees) at 9 MPH (8 knots; 4.2 m/s)
Visibility: 10 or more miles (16+ km)
Ceiling: at least 12,000 feet AGL
Clouds: few clouds at 8000 feet AGL
Present Weather: no significant weather observed at this time
KPGD 162353Z 10008KT 10SM FEW080 29/22 A3006 RMK AO2 SLP181 T02890222 10344 20289 53015

Conditions at: KPGD observed 16 October 2018  22:53 UTC
Temperature: 30.0°C (86°F)
Dewpoint: 22.2°C (72°F) [RH = 63%]
Pressure (altimeter): 30.04 inches Hg (1017.4 mb)
[Sea-level pressure: 1017.4 mb]
Winds: from the E (80 degrees) at 10 MPH (9 knots; 4.7 m/s)
Visibility: 10 or more miles (16+ km)
Ceiling: at least 12,000 feet AGL
Clouds: sky clear below 12,000 feet AGL
Present Weather: no significant weather observed at this time
KPGD 162253Z 08009KT 10SM CLR 30/22 A3004 RMK AO2 SLP174 T03000222

Conditions at: KPGD observed 16 October 2018  21:53 UTC
Temperature: 32.2°C (90°F)
Dewpoint: 22.2°C (72°F) [RH = 56%]
Pressure (altimeter): 30.03 inches Hg (1017.0 mb)
[Sea-level pressure: 1016.9 mb]
Winds: from the E (80 degrees) at 13 MPH (11 knots; 5.7 m/s)
Visibility: 10 or more miles (16+ km)
Ceiling: at least 12,000 feet AGL
Clouds: few clouds at 7000 feet AGL
Present Weather: no significant weather observed at this time
KPGD 162153Z 08011KT 10SM FEW070 32/22 A3003 RMK AO2 SLP169 T03220222

Conditions at: KPGD observed 16 October 2018  20:53 UTC
Temperature: 33.9°C (93°F)
Dewpoint: 21.7°C (71°F) [RH = 49%]
Pressure (altimeter): 30.02 inches Hg (1016.7 mb)
[Sea-level pressure: 1016.6 mb]
Winds: from the ESE (110 degrees) at 15 MPH (13 knots; 6.8 m/s)
Visibility: 10 or more miles (16+ km)
Ceiling: at least 12,000 feet AGL
Clouds: few clouds at 4800 feet AGL
Present Weather: no significant weather observed at this time
KPGD 162053Z 11013KT 10SM FEW048 34/22 A3002 RMK AO2 SLP166 T03390217 56011

Conditions at: KPGD observed 16 October 2018  19:53 UTC
Temperature: 33.9°C (93°F)
Dewpoint: 21.1°C (70°F) [RH = 47%]
Pressure (altimeter): 30.03 inches Hg (1017.0 mb)
[Sea-level pressure: 1016.8 mb]
Winds: from the ESE (110 degrees) at 16 MPH (14 knots; 7.3 m/s)
Visibility: 10 or more miles (16+ km)
Ceiling: at least 12,000 feet AGL
Clouds: few clouds at 4600 feet AGL
scattered clouds at 7500 feet AGL
Present Weather: no significant weather observed at this time
KPGD 161953Z 11014KT 10SM FEW046 SCT075 34/21 A3003 RMK AO2 SLP168 T03390211

Conditions at: KPGD observed 16 October 2018  18:53 UTC
Temperature: 32.8°C (91°F)
Dewpoint: 22.2°C (72°F) [RH = 54%]
Pressure (altimeter): 30.04 inches Hg (1017.4 mb)
[Sea-level pressure: 1017.1 mb]
Winds: from the E (100 degrees) at 9 MPH (8 knots; 4.2 m/s)
Visibility: 10 or more miles (16+ km)
Ceiling: at least 12,000 feet AGL
Clouds: scattered clouds at 4900 feet AGL
Present Weather: no significant weather observed at this time
KPGD 161853Z 10008KT 10SM SCT049 33/22 A3004 RMK AO2 SLP171 T03280222

Conditions at: KPGD observed 16 October 2018  17:53 UTC
Temperature: 32.8°C (91°F)
Dewpoint: 21.7°C (71°F) [RH = 52%]
Pressure (altimeter): 30.05 inches Hg (1017.7 mb)
[Sea-level pressure: 1017.8 mb]
Winds: from the E (90 degrees) at 12 MPH (10 knots; 5.2 m/s)
Visibility: 10 or more miles (16+ km)
Ceiling: at least 12,000 feet AGL
Clouds: few clouds at 4400 feet AGL
scattered clouds at 5000 feet AGL
Present Weather: no significant weather observed at this time
KPGD 161753Z 09010KT 10SM FEW044 SCT050 33/22 A3005 RMK AO2 SLP178 T03280217 10339 20244 58023

Conditions at: KPGD observed 16 October 2018  16:53 UTC
Temperature: 32.2°C (90°F)
Dewpoint: 22.2°C (72°F) [RH = 56%]
Pressure (altimeter): 30.08 inches Hg (1018.7 mb)
[Sea-level pressure: 1018.7 mb]
Winds: from the ESE (120 degrees) at 14 MPH (12 knots; 6.2 m/s)
Visibility: 10 or more miles (16+ km)
Ceiling: at least 12,000 feet AGL
Clouds: scattered clouds at 2900 feet AGL
Present Weather: no significant weather observed at this time
KPGD 161653Z 12012KT 10SM SCT029 32/22 A3008 RMK AO2 SLP187 T03220222